International Virtual Aviation Organisation

Russian Federation and Kazakhstan MCD

 

Карточка аэропорта URMN

Внимание!
Информация на этой странице в стадии наполнения.
Если вы не увидели какой-то информации, или заметили неточность - пожалуйста сообщите нам!
Спасибо!
Команда RU-STAFF
Название аэропортаНальчик
Название аэропорта (англ.)Nalchik
Превышение445 ft. (135.6 m.)
Координаты43°30.798', 43°38.298'
Высота перехода1000m
Эшелон перехода60
Коды ответчика1001-1007
Зона ОрВДРостов-на-Дону РПИ (URRV)
Данные METARURMN 191700Z 22003MPS 9999 NSC 27/18 Q1016 R24/010070 NOSIG RMK QFE725
Проноз погоды (TAF)NODATA
NOTAMshow/hide NOTAM
AWOS   TABLE

Информация о ВПП

ВПП Длина ВПП (м.) Покрытие Курс ВПП Частота ILS
062200Асфальтобетон57 
242200Асфальтобетон237110.5

Диспетчерские позиции

Позывной Наименование органа УВД Частота
URMN_TWRНальчик-Старт/Посадка118.3
URMN_APPНальчик - Подход126.9



Спутниковое изображение